Dixon, Wyoming
Current Conditions -  °F | °C
As of 10:15 AM on Friday 24 Oct 2014 (Local Time) from KDWX Reporting Station
Clear Clear  
Wind Chill: 62°   Ceiling: Unl
Heat Index: 62°   Visibility: 10mi
Dew Point: 31°   Wind: 15mph
Humidity: 32%   Direction: 210°SSW
Pressure: 30.33"   Gusts: 23mph
Location:  41.03°N, 107.54°W
Report Text: KDWX 241615Z AUTO 21013G20KT 10SM CLR 17/00 A3033 RMK AO2 T01651005
Loading
Personal Weather Stations






























Interactive Weather Map
Tropical Storm Tracking
New forecast layout! Learn more

10-Day Weather Forecast

Advertisements
Track Severe Weather on mobile